Time;durP1;ratioP1;P1;durP2;ratioP2;P2;SDS_P1;SDS_P2;PMS_P1;PMS_P2;Temp;Humidity;BMP_temperature;BMP_pressure;BME280_temperature;BME280_humidity;BME280_pressure;Samples;Min_cycle;Max_cycle;Signal;HPM_P1;HPM_P2
2022/06/08 00:00:15;;;;;;;26.87;2.60;;;15.80;41.60;;;;;;4990707;28;20969;-69
2022/06/08 00:02:44;;;;;;;27.07;3.00;;;15.80;41.40;;;;;;4991460;28;20488;-68
2022/06/08 00:05:12;;;;;;;26.47;2.80;;;15.80;41.30;;;;;;4989295;28;20460;-68
2022/06/08 00:07:39;;;;;;;26.80;3.50;;;15.80;41.40;;;;;;4990339;28;20468;-68
2022/06/08 00:10:09;;;;;;;26.07;2.73;;;15.70;41.40;;;;;;4990284;28;20479;-68
2022/06/08 00:12:36;;;;;;;26.87;2.90;;;15.70;41.60;;;;;;4990538;28;20480;-68
2022/06/08 00:15:04;;;;;;;26.23;3.20;;;15.60;41.30;;;;;;4990757;28;20821;-68
2022/06/08 00:17:30;;;;;;;25.67;2.90;;;15.60;41.40;;;;;;4991163;28;20495;-67
2022/06/08 00:19:57;;;;;;;26.03;2.80;;;15.60;41.30;;;;;;4990928;28;20976;-67
2022/06/08 00:22:24;;;;;;;26.33;3.87;;;15.50;41.50;;;;;;4990985;28;20495;-67
2022/06/08 00:24:50;;;;;;;25.77;2.70;;;15.50;41.50;;;;;;4990584;28;20460;-68
2022/06/08 00:27:19;;;;;;;26.67;3.20;;;15.50;41.50;;;;;;4990739;28;20480;-68
2022/06/08 00:29:45;;;;;;;27.10;2.63;;;15.50;41.80;;;;;;4991252;28;20467;-68
2022/06/08 00:32:12;;;;;;;32.23;4.00;;;15.40;41.40;;;;;;4989339;28;20504;-67
2022/06/08 00:34:39;;;;;;;26.63;2.80;;;15.40;41.70;;;;;;4990043;28;20467;-68
2022/06/08 00:37:06;;;;;;;25.70;2.60;;;15.40;41.50;;;;;;4989764;28;20905;-71
2022/06/08 00:39:33;;;;;;;26.87;2.90;;;15.40;41.40;;;;;;4990607;28;20496;-68
2022/06/08 00:42:04;;;;;;;27.10;2.90;;;15.30;41.50;;;;;;4990511;28;20461;-68
2022/06/08 00:44:35;;;;;;;27.40;2.90;;;15.30;41.60;;;;;;4990614;28;20461;-69
2022/06/08 00:47:04;;;;;;;30.03;2.63;;;15.20;41.90;;;;;;4990029;28;20472;-68
2022/06/08 00:49:37;;;;;;;30.20;3.73;;;15.20;41.60;;;;;;4989827;28;20461;-68
2022/06/08 00:52:05;;;;;;;26.07;3.10;;;15.20;41.60;;;;;;4989976;28;20468;-68
2022/06/08 00:54:35;;;;;;;26.20;2.50;;;15.10;42.00;;;;;;4986512;28;20469;-69
2022/06/08 00:57:06;;;;;;;25.00;2.57;;;15.10;42.50;;;;;;4988343;28;20480;-68
2022/06/08 00:59:35;;;;;;;26.63;2.50;;;15.10;42.50;;;;;;4990012;28;20873;-68
2022/06/08 01:02:02;;;;;;;26.20;2.80;;;15.00;42.40;;;;;;4989681;28;20479;-68
2022/06/08 01:04:31;;;;;;;26.53;4.03;;;15.00;42.50;;;;;;4987942;28;20464;-68
2022/06/08 01:06:59;;;;;;;26.57;3.00;;;15.00;42.80;;;;;;4989844;28;20465;-68
2022/06/08 01:09:31;;;;;;;26.10;2.50;;;15.00;42.90;;;;;;4989898;28;20468;-69
2022/06/08 01:12:01;;;;;;;27.20;3.40;;;15.00;43.20;;;;;;4989662;28;20464;-68
2022/06/08 01:14:28;;;;;;;27.80;2.73;;;14.90;43.20;;;;;;4990111;28;20468;-68
2022/06/08 01:17:03;;;;;;;25.73;2.60;;;14.90;43.40;;;;;;4988489;28;20465;-68
2022/06/08 01:19:33;;;;;;;25.87;2.70;;;14.90;43.70;;;;;;4989352;28;20816;-69
2022/06/08 01:22:03;;;;;;;25.90;3.00;;;14.90;43.70;;;;;;4989018;28;20886;-68
2022/06/08 01:24:32;;;;;;;26.50;3.47;;;14.90;43.80;;;;;;4989673;28;20476;-68
2022/06/08 01:27:16;;;;;;;29.03;3.20;;;14.90;43.70;;;;;;4988294;28;20468;-68
2022/06/08 01:29:51;;;;;;;26.53;3.13;;;14.80;43.90;;;;;;4989896;28;20445;-68
2022/06/08 01:32:24;;;;;;;26.30;2.90;;;14.80;43.80;;;;;;4988405;28;20481;-68
2022/06/08 01:35:07;;;;;;;33.83;3.10;;;14.80;43.90;;;;;;4989444;28;20465;-68
2022/06/08 01:37:46;;;;;;;30.10;3.50;;;14.70;44.20;;;;;;4988618;28;20496;-69
2022/06/08 01:40:49;;;;;;;26.97;3.50;;;14.70;44.20;;;;;;4989044;28;20441;-68
2022/06/08 01:43:24;;;;;;;27.80;4.27;;;14.70;44.50;;;;;;4988675;28;20484;-68
2022/06/08 01:46:10;;;;;;;26.63;3.37;;;14.60;44.20;;;;;;4988071;28;20455;-68
2022/06/08 01:48:52;;;;;;;30.33;3.70;;;14.60;44.50;;;;;;4969188;28;20822;-68
2022/06/08 01:51:42;;;;;;;28.03;3.97;;;14.60;44.60;;;;;;4969770;28;20453;-69
2022/06/08 01:54:17;;;;;;;28.40;4.07;;;14.50;44.80;;;;;;4969871;28;20569;-71
2022/06/08 01:56:51;;;;;;;28.03;3.30;;;14.50;44.60;;;;;;4972810;28;20464;-68
2022/06/08 01:59:27;;;;;;;31.37;4.80;;;14.50;44.90;;;;;;4979093;28;20488;-68
2022/06/08 02:02:03;;;;;;;27.93;4.07;;;14.50;44.90;;;;;;4968511;28;20979;-68
2022/06/08 02:04:34;;;;;;;31.40;4.40;;;14.40;45.10;;;;;;4968299;28;20853;-68
2022/06/08 02:07:18;;;;;;;27.83;4.97;;;14.40;45.10;;;;;;4969246;28;20903;-68
2022/06/08 02:09:54;;;;;;;31.50;3.90;;;14.40;45.50;;;;;;4980797;28;20849;-68
2022/06/08 02:12:21;;;;;;;28.00;4.67;;;14.40;45.50;;;;;;4989138;28;20487;-68
2022/06/08 02:14:53;;;;;;;28.13;4.13;;;14.40;45.40;;;;;;4988023;28;20461;-68
2022/06/08 02:17:24;;;;;;;28.30;4.50;;;14.40;45.40;;;;;;4988269;28;20461;-68
2022/06/08 02:19:55;;;;;;;27.70;4.47;;;14.30;45.60;;;;;;4987588;28;20820;-68
2022/06/08 02:22:27;;;;;;;32.50;4.40;;;14.30;45.90;;;;;;4988461;28;20495;-68
2022/06/08 02:24:59;;;;;;;29.77;4.83;;;14.30;45.90;;;;;;4988275;28;20501;-69
2022/06/08 02:27:31;;;;;;;28.87;4.60;;;14.20;46.00;;;;;;4988457;28;20463;-68
2022/06/08 02:30:05;;;;;;;28.57;4.00;;;14.20;45.80;;;;;;4987952;28;20465;-68
2022/06/08 02:35:24;;;;;;;27.77;4.40;;;14.20;46.00;;;;;;4988539;28;20439;-69
2022/06/08 02:37:55;;;;;;;30.07;4.27;;;14.20;45.70;;;;;;4989168;28;20516;-68
2022/06/08 02:40:29;;;;;;;32.00;5.10;;;14.20;45.80;;;;;;4987296;28;20842;-68
2022/06/08 02:43:00;;;;;;;29.10;5.07;;;14.10;45.70;;;;;;4988114;28;20515;-68
2022/06/08 02:45:31;;;;;;;29.50;4.80;;;14.10;45.90;;;;;;4988039;28;20960;-68
2022/06/08 02:48:02;;;;;;;29.30;4.40;;;14.10;45.80;;;;;;4988672;28;20465;-68
2022/06/08 02:50:30;;;;;;;29.67;5.40;;;14.10;46.00;;;;;;4987789;28;20465;-68
2022/06/08 02:53:29;;;;;;;31.87;5.73;;;14.10;45.60;;;;;;4988422;28;21057;-69
2022/06/08 02:56:04;;;;;;;30.33;5.60;;;14.00;46.10;;;;;;4987946;28;20937;-68
2022/06/08 02:58:39;;;;;;;31.30;5.60;;;14.00;46.00;;;;;;4988424;28;20487;-68
2022/06/08 03:01:12;;;;;;;28.90;5.20;;;14.00;45.70;;;;;;4986717;28;20504;-68
2022/06/08 03:03:47;;;;;;;28.20;4.57;;;13.90;45.90;;;;;;4988641;28;20488;-69
2022/06/08 03:06:18;;;;;;;29.97;5.50;;;13.90;45.90;;;;;;4987700;28;20460;-68
2022/06/08 03:08:49;;;;;;;31.33;5.00;;;13.90;46.00;;;;;;4988463;28;20479;-68
2022/06/08 03:11:19;;;;;;;30.83;5.17;;;13.90;46.10;;;;;;4987462;28;20571;-68
2022/06/08 03:13:52;;;;;;;32.33;5.90;;;13.90;46.10;;;;;;4988277;28;20496;-68
2022/06/08 03:16:28;;;;;;;32.33;6.60;;;13.80;46.00;;;;;;4987536;28;20449;-68
2022/06/08 03:18:56;;;;;;;30.60;6.20;;;13.90;46.50;;;;;;4987730;28;20488;-63
2022/06/08 03:21:23;;;;;;;30.10;6.20;;;13.80;46.30;;;;;;4986622;28;20942;-63
2022/06/08 03:23:50;;;;;;;28.80;4.93;;;13.80;46.60;;;;;;4986520;28;20488;-64
2022/06/08 03:26:19;;;;;;;30.60;5.73;;;13.80;46.60;;;;;;4987020;28;20475;-63
2022/06/08 03:28:47;;;;;;;30.57;5.80;;;13.80;46.70;;;;;;4985786;28;20530;-67
2022/06/08 03:31:14;;;;;;;31.27;5.57;;;13.80;46.70;;;;;;4987952;28;20612;-68
2022/06/08 03:33:41;;;;;;;30.73;6.30;;;13.80;46.80;;;;;;4985246;28;20511;-68
2022/06/08 03:36:09;;;;;;;32.20;5.97;;;13.80;46.80;;;;;;4987497;28;20468;-68
2022/06/08 03:38:36;;;;;;;31.67;6.17;;;13.80;46.80;;;;;;4987394;28;20489;-68
2022/06/08 03:41:03;;;;;;;33.53;6.50;;;13.90;46.70;;;;;;4987443;28;20465;-68
2022/06/08 03:43:31;;;;;;;30.00;6.30;;;13.80;46.50;;;;;;4991222;28;20531;-68
2022/06/08 03:46:02;;;;;;;30.63;5.70;;;13.90;46.50;;;;;;4989588;28;20468;-68
2022/06/08 03:48:29;;;;;;;31.90;5.80;;;13.90;46.50;;;;;;4985127;28;20481;-68
2022/06/08 03:50:58;;;;;;;32.90;5.70;;;13.90;46.60;;;;;;4970890;28;20488;-68
2022/06/08 03:53:30;;;;;;;31.37;6.00;;;13.90;46.50;;;;;;4971550;28;20484;-67
2022/06/08 03:55:58;;;;;;;32.97;5.50;;;13.90;46.50;;;;;;4982971;28;20475;-67
2022/06/08 03:58:26;;;;;;;31.90;6.57;;;13.90;46.80;;;;;;4991227;28;20483;-68
2022/06/08 04:00:54;;;;;;;31.00;6.47;;;14.00;46.90;;;;;;4989609;28;20503;-69
2022/06/08 04:03:21;;;;;;;31.60;6.27;;;14.00;46.70;;;;;;4989381;28;20487;-67
2022/06/08 04:05:48;;;;;;;30.80;6.07;;;14.00;46.60;;;;;;4988949;28;20461;-68
2022/06/08 04:08:15;;;;;;;31.23;6.30;;;14.00;46.60;;;;;;4990268;28;20457;-68
2022/06/08 04:10:42;;;;;;;31.73;5.30;;;14.10;46.60;;;;;;4990997;28;20465;-68
2022/06/08 04:13:08;;;;;;;30.10;6.13;;;14.10;46.60;;;;;;4990242;28;20492;-68
2022/06/08 04:15:44;;;;;;;29.10;5.73;;;14.20;46.50;;;;;;4990499;28;20496;-68
2022/06/08 04:18:14;;;;;;;30.17;6.13;;;14.30;46.40;;;;;;4990934;28;20469;-68
2022/06/08 04:20:43;;;;;;;41.83;6.47;;;14.30;46.30;;;;;;4991013;28;20468;-68
2022/06/08 04:23:11;;;;;;;29.57;6.00;;;14.40;46.40;;;;;;4990666;28;20485;-68
2022/06/08 04:25:39;;;;;;;29.07;5.87;;;14.50;46.40;;;;;;4990824;28;20467;-68
2022/06/08 04:28:07;;;;;;;29.80;6.10;;;14.50;46.50;;;;;;4990685;28;20820;-68
2022/06/08 04:30:34;;;;;;;31.47;5.47;;;14.80;47.20;;;;;;4989894;28;20476;-68
2022/06/08 04:33:01;;;;;;;31.20;5.93;;;15.20;48.80;;;;;;4991108;28;20485;-68
2022/06/08 04:35:30;;;;;;;29.60;5.23;;;15.90;47.70;;;;;;4990059;28;20469;-67
2022/06/08 04:37:57;;;;;;;29.43;4.90;;;16.90;44.40;;;;;;4990190;28;20473;-68
2022/06/08 04:40:24;;;;;;;31.97;5.70;;;17.70;40.00;;;;;;4990251;28;20465;-68
2022/06/08 04:42:51;;;;;;;29.53;4.37;;;18.50;37.10;;;;;;4990267;28;20492;-68
2022/06/08 04:45:18;;;;;;;29.10;4.63;;;19.00;34.10;;;;;;4990487;28;20461;-68
2022/06/08 04:47:45;;;;;;;28.60;4.43;;;19.60;33.10;;;;;;4989656;28;20832;-68
2022/06/08 04:50:13;;;;;;;29.23;4.73;;;20.30;30.20;;;;;;4990393;28;20456;-68
2022/06/08 04:52:41;;;;;;;31.10;4.80;;;21.00;28.20;;;;;;4989496;28;20485;-68
2022/06/08 04:55:10;;;;;;;30.50;4.20;;;21.10;25.80;;;;;;4989512;28;20472;-68
2022/06/08 04:57:37;;;;;;;31.03;4.30;;;21.40;26.40;;;;;;4988966;28;20461;-68
2022/06/08 05:00:06;;;;;;;28.67;3.30;;;22.00;24.10;;;;;;4989772;28;20996;-68
2022/06/08 05:02:47;;;;;;;28.50;3.40;;;22.60;22.20;;;;;;4988847;28;20473;-68
2022/06/08 05:05:17;;;;;;;28.17;3.40;;;23.00;20.50;;;;;;4990266;28;20441;-68
2022/06/08 05:07:45;;;;;;;28.10;3.67;;;23.30;20.00;;;;;;4989105;28;20583;-68
2022/06/08 05:10:12;;;;;;;28.53;3.30;;;23.70;19.00;;;;;;4990664;28;20464;-68
2022/06/08 05:12:40;;;;;;;31.73;3.27;;;23.80;18.70;;;;;;4989826;28;20477;-68
2022/06/08 05:15:10;;;;;;;27.60;3.63;;;24.10;18.60;;;;;;4989788;28;20972;-68
2022/06/08 05:17:37;;;;;;;27.63;4.20;;;24.90;17.30;;;;;;4989209;28;20465;-69
2022/06/08 05:20:05;;;;;;;28.30;4.17;;;25.70;15.10;;;;;;4970390;28;20493;-68
2022/06/08 05:22:32;;;;;;;27.27;3.60;;;26.10;14.10;;;;;;4970155;28;20501;-69
2022/06/08 05:25:03;;;;;;;28.60;4.27;;;26.50;12.70;;;;;;4970659;28;20442;-69
2022/06/08 05:27:30;;;;;;;27.80;3.20;;;26.40;12.50;;;;;;4969354;28;20503;-68
2022/06/08 05:29:56;;;;;;;26.90;3.47;;;26.30;12.80;;;;;;4985224;28;20681;-69
2022/06/08 05:32:23;;;;;;;26.50;3.80;;;26.60;12.50;;;;;;4982240;28;20492;-68
2022/06/08 05:34:50;;;;;;;26.57;4.03;;;27.20;12.00;;;;;;4985779;28;20463;-68
2022/06/08 05:37:17;;;;;;;26.90;3.13;;;27.60;11.10;;;;;;4980247;28;20469;-69
2022/06/08 05:39:43;;;;;;;27.83;3.40;;;27.90;10.40;;;;;;4987539;28;20488;-69
2022/06/08 05:42:12;;;;;;;28.23;3.60;;;27.80;9.60;;;;;;4988435;28;20468;-69
2022/06/08 05:44:38;;;;;;;28.87;3.80;;;27.50;10.90;;;;;;4989789;28;20487;-69
2022/06/08 05:47:06;;;;;;;27.37;3.80;;;27.40;10.00;;;;;;4989537;28;20464;-69
2022/06/08 05:49:34;;;;;;;25.67;3.27;;;27.10;10.60;;;;;;4989574;28;20472;-69
2022/06/08 05:52:02;;;;;;;26.50;3.60;;;27.00;10.50;;;;;;4988686;28;20471;-69
2022/06/08 05:54:29;;;;;;;25.53;3.20;;;27.20;10.50;;;;;;4989798;28;20527;-69
2022/06/08 05:56:56;;;;;;;30.80;3.70;;;27.60;10.50;;;;;;4989213;28;20544;-69
2022/06/08 05:59:25;;;;;;;27.53;3.10;;;28.30;9.60;;;;;;4987935;28;20608;-69
2022/06/08 06:01:52;;;;;;;27.80;3.10;;;29.40;8.30;;;;;;4987856;28;20472;-69
2022/06/08 06:04:19;;;;;;;25.43;3.17;;;30.90;6.30;;;;;;4988897;28;20481;-69
2022/06/08 06:06:47;;;;;;;26.03;3.03;;;32.00;4.30;;;;;;4988733;28;20468;-69
2022/06/08 06:09:14;;;;;;;25.70;2.87;;;32.70;3.10;;;;;;4989083;28;20472;-69
2022/06/08 06:11:41;;;;;;;24.80;2.60;;;33.80;1.70;;;;;;4987404;28;20472;-69
2022/06/08 06:14:09;;;;;;;25.00;2.67;;;34.80;1.00;;;;;;4988584;28;20516;-69
2022/06/08 06:16:37;;;;;;;24.43;2.77;;;35.90;1.00;;;;;;4988829;28;20495;-69
2022/06/08 06:19:05;;;;;;;23.87;2.43;;;36.60;1.00;;;;;;4988826;28;20484;-69
2022/06/08 06:21:32;;;;;;;23.60;2.70;;;37.30;1.00;;;;;;4987685;28;20468;-69
2022/06/08 06:24:01;;;;;;;24.07;2.37;;;38.00;1.00;;;;;;4989058;28;20492;-69
2022/06/08 06:26:29;;;;;;;24.30;2.60;;;38.70;1.00;;;;;;4976022;28;20465;-69
2022/06/08 06:28:56;;;;;;;23.33;2.70;;;39.40;1.00;;;;;;4968442;28;20528;-69
2022/06/08 06:31:26;;;;;;;23.40;2.30;;;40.00;1.00;;;;;;4979187;28;20472;-69
2022/06/08 06:33:54;;;;;;;23.50;2.50;;;40.50;1.00;;;;;;4989039;28;20481;-69
2022/06/08 06:36:21;;;;;;;22.67;2.50;;;40.80;1.00;;;;;;4988844;28;20471;-70
2022/06/08 06:38:48;;;;;;;23.80;2.87;;;41.10;1.00;;;;;;4988369;28;20484;-69
2022/06/08 06:41:16;;;;;;;23.17;2.40;;;41.60;1.00;;;;;;4987615;28;20471;-69
2022/06/08 06:43:44;;;;;;;23.20;2.60;;;42.20;1.00;;;;;;4988326;28;20480;-70
2022/06/08 06:46:11;;;;;;;22.20;2.60;;;42.60;1.00;;;;;;4988620;28;20461;-69
2022/06/08 06:48:38;;;;;;;21.93;2.40;;;43.00;1.00;;;;;;4988420;28;20461;-70
2022/06/08 06:51:07;;;;;;;22.63;2.27;;;43.50;1.00;;;;;;4987782;28;20460;-69
2022/06/08 06:56:56;;;;;;;23.63;2.40;;;43.90;1.00;;;;;;4988023;28;20475;-69
2022/06/08 06:59:23;;;;;;;21.53;2.13;;;44.20;1.00;;;;;;4987765;28;20480;-70
2022/06/08 07:01:50;;;;;;;22.07;1.80;;;44.50;1.00;;;;;;4986573;28;20510;-70
2022/06/08 07:04:18;;;;;;;22.80;2.40;;;44.80;1.00;;;;;;4988284;28;21010;-70
2022/06/08 07:06:46;;;;;;;24.40;2.27;;;45.10;1.00;;;;;;4988414;28;20484;-70
2022/06/08 07:09:13;;;;;;;21.90;2.10;;;45.30;1.00;;;;;;4988413;28;20456;-70
2022/06/08 07:11:41;;;;;;;24.50;3.00;;;45.70;1.00;;;;;;4987255;28;20461;-70
2022/06/08 07:14:11;;;;;;;21.23;2.30;;;46.00;1.00;;;;;;4987323;28;20550;-70
2022/06/08 07:16:38;;;;;;;22.07;2.37;;;46.40;1.00;;;;;;4989261;28;20465;-70
2022/06/08 07:19:05;;;;;;;24.90;2.50;;;46.90;1.00;;;;;;4991831;28;20489;-70
2022/06/08 07:21:33;;;;;;;20.90;2.30;;;47.20;1.00;;;;;;4990597;28;20465;-70
2022/06/08 07:24:01;;;;;;;21.90;2.07;;;47.40;1.00;;;;;;4990497;28;20496;-70
2022/06/08 07:26:28;;;;;;;21.90;2.40;;;47.80;1.00;;;;;;4991213;28;20464;-70
2022/06/08 07:28:55;;;;;;;22.20;2.30;;;47.90;1.00;;;;;;4991445;28;20468;-70
2022/06/08 07:31:22;;;;;;;23.73;2.37;;;48.10;1.00;;;;;;4991244;28;20797;-70
2022/06/08 07:33:50;;;;;;;20.87;1.90;;;48.20;1.00;;;;;;4992101;28;20507;-70
2022/06/08 07:36:18;;;;;;;21.63;2.23;;;48.40;1.00;;;;;;4990673;28;20472;-70
2022/06/08 07:38:45;;;;;;;21.10;2.07;;;48.50;1.00;;;;;;4991738;28;20471;-70
2022/06/08 07:41:14;;;;;;;21.77;2.03;;;48.70;1.00;;;;;;4991753;28;20487;-70
2022/06/08 07:43:41;;;;;;;20.40;1.97;;;49.00;1.00;;;;;;4991584;28;20490;-70
2022/06/08 07:46:08;;;;;;;23.53;2.40;;;49.40;1.00;;;;;;4990950;28;20468;-70
2022/06/08 07:51:19;;;;;;;22.03;1.90;;;50.60;1.00;;;;;;4991100;28;20959;-70
2022/06/08 07:53:46;;;;;;;21.57;2.07;;;50.70;1.00;;;;;;4990886;28;20992;-70
2022/06/08 07:56:14;;;;;;;20.57;2.03;;;51.00;1.00;;;;;;4990432;28;21260;-70
2022/06/08 07:58:41;;;;;;;20.43;1.87;;;51.30;1.00;;;;;;4991121;28;20468;-70
2022/06/08 08:01:08;;;;;;;19.90;2.10;;;51.50;1.00;;;;;;4990509;28;20484;-70
2022/06/08 08:03:35;;;;;;;21.93;2.40;;;51.90;1.00;;;;;;4990967;28;20484;-70
2022/06/08 08:06:02;;;;;;;19.33;1.70;;;52.00;1.00;;;;;;4990014;28;20464;-70
2022/06/08 08:08:29;;;;;;;20.73;1.90;;;51.90;1.00;;;;;;4991555;28;20962;-70
2022/06/08 08:10:55;;;;;;;20.63;2.00;;;52.20;1.00;;;;;;4991710;28;20457;-70
2022/06/08 08:13:23;;;;;;;20.00;2.10;;;52.50;1.00;;;;;;4991184;28;20481;-70
2022/06/08 08:15:51;;;;;;;21.50;2.00;;;52.50;1.00;;;;;;4989709;28;20465;-70
2022/06/08 08:18:18;;;;;;;20.20;1.50;;;52.60;1.00;;;;;;4991259;28;20461;-70
2022/06/08 08:20:45;;;;;;;20.47;2.00;;;52.70;1.00;;;;;;4991038;28;20481;-70
2022/06/08 08:23:12;;;;;;;19.13;1.23;;;52.60;1.00;;;;;;4990759;28;20488;-70
2022/06/08 08:25:39;;;;;;;20.60;1.60;;;52.70;1.00;;;;;;4991243;28;20465;-70
2022/06/08 08:28:07;;;;;;;21.10;1.77;;;52.70;1.00;;;;;;4990377;28;20978;-70
2022/06/08 08:30:36;;;;;;;19.80;1.80;;;53.00;1.00;;;;;;4990331;28;20827;-70
2022/06/08 08:33:03;;;;;;;19.50;2.00;;;53.20;1.00;;;;;;4990459;28;20491;-70
2022/06/08 08:35:30;;;;;;;19.13;1.70;;;53.00;1.00;;;;;;4990461;28;20471;-70
2022/06/08 08:38:09;;;;;;;18.60;1.37;;;53.20;1.00;;;;;;4989703;28;20488;-70
2022/06/08 08:40:45;;;;;;;19.40;1.60;;;53.50;1.00;;;;;;4990408;28;20483;-71
2022/06/08 08:43:16;;;;;;;19.17;1.57;;;53.60;1.00;;;;;;4990666;28;20511;-70
2022/06/08 08:46:11;;;;;;;19.37;1.50;;;54.00;1.00;;;;;;4990318;28;20452;-70
2022/06/08 08:48:47;;;;;;;20.63;1.60;;;54.50;1.00;;;;;;4990008;28;20456;-70
2022/06/08 08:51:19;;;;;;;19.43;1.40;;;53.90;1.00;;;;;;4991140;28;20440;-70
2022/06/08 08:53:59;;;;;;;22.13;1.50;;;53.40;1.00;;;;;;4990108;28;20841;-70
2022/06/08 08:56:31;;;;;;;18.40;1.20;;;53.90;1.00;;;;;;4990392;28;20991;-70
2022/06/08 08:59:00;;;;;;;19.80;1.60;;;54.00;1.00;;;;;;4988947;28;20468;-70
2022/06/08 09:01:31;;;;;;;18.50;1.27;;;53.70;1.00;;;;;;4989661;28;20472;-70
2022/06/08 09:04:02;;;;;;;19.97;1.80;;;53.60;1.00;;;;;;4989739;28;20480;-71
2022/06/08 09:06:31;;;;;;;19.37;1.50;;;54.00;1.00;;;;;;4990585;28;20452;-70
2022/06/08 09:09:03;;;;;;;19.37;1.53;;;54.30;1.00;;;;;;4988630;28;20480;-70
2022/06/08 09:11:34;;;;;;;19.10;1.60;;;54.30;1.00;;;;;;4990389;28;20819;-70
2022/06/08 09:14:13;;;;;;;18.70;1.80;;;54.60;1.00;;;;;;4989423;28;20475;-70
2022/06/08 09:16:45;;;;;;;20.80;1.70;;;54.80;1.00;;;;;;4990220;28;20495;-70
2022/06/08 09:19:28;;;;;;;20.80;1.90;;;54.60;1.00;;;;;;4989340;28;20471;-70
2022/06/08 09:21:59;;;;;;;19.67;1.90;;;53.10;1.00;;;;;;4989892;28;20896;-70
2022/06/08 09:24:32;;;;;;;19.43;1.40;;;50.70;1.00;;;;;;4989231;28;20913;-70
2022/06/08 09:27:13;;;;;;;20.40;1.63;;;48.60;1.00;;;;;;4989435;28;20464;-70
2022/06/08 09:29:49;;;;;;;20.90;2.00;;;46.50;1.00;;;;;;4988339;28;20457;-70
2022/06/08 09:32:31;;;;;;;21.10;2.00;;;44.50;1.00;;;;;;4988996;28;20472;-70
2022/06/08 09:35:01;;;;;;;20.87;1.60;;;42.60;1.00;;;;;;4989890;28;20445;-70
2022/06/08 09:37:29;;;;;;;21.90;2.00;;;41.10;1.00;;;;;;4989005;28;21141;-70
2022/06/08 09:39:59;;;;;;;22.70;2.00;;;39.80;1.00;;;;;;4988005;28;20484;-70
2022/06/08 09:42:46;;;;;;;23.03;1.90;;;38.50;1.00;;;;;;4989488;28;20860;-70
2022/06/08 09:45:38;;;;;;;23.80;1.97;;;37.60;1.00;;;;;;4989539;28;20475;-70
2022/06/08 09:51:35;;;;;;;24.83;2.33;;;35.80;1.00;;;;;;4988901;28;20519;-70
2022/06/08 09:54:11;;;;;;;22.97;1.93;;;35.10;1.00;;;;;;4989731;28;20902;-70
2022/06/08 09:57:07;;;;;;;23.00;2.20;;;34.70;1.00;;;;;;4989533;28;20461;-70
2022/06/08 09:59:51;;;;;;;23.87;2.80;;;34.30;1.00;;;;;;4988805;28;20483;-70
2022/06/08 10:02:29;;;;;;;25.00;2.40;;;34.00;1.00;;;;;;4987858;28;20482;-70
2022/06/08 10:05:09;;;;;;;25.80;2.60;;;33.70;1.00;;;;;;4989356;28;20794;-70
2022/06/08 10:07:46;;;;;;;24.97;2.50;;;33.60;1.00;;;;;;4989023;28;20456;-70
2022/06/08 10:10:27;;;;;;;25.47;2.10;;;33.60;1.00;;;;;;4988611;28;20492;-70
2022/06/08 10:12:57;;;;;;;24.73;2.63;;;33.70;1.00;;;;;;4988307;28;20515;-70
2022/06/08 10:15:28;;;;;;;24.93;2.77;;;33.60;1.00;;;;;;4988607;28;21019;-70
2022/06/08 10:18:00;;;;;;;24.27;2.40;;;33.30;1.00;;;;;;4988884;28;20488;-70
2022/06/08 10:20:34;;;;;;;23.17;2.40;;;33.30;1.00;;;;;;4988167;28;20600;-70
2022/06/08 10:23:06;;;;;;;26.20;2.40;;;33.10;1.00;;;;;;4989457;28;20499;-70
2022/06/08 10:25:39;;;;;;;24.27;2.37;;;33.00;1.00;;;;;;4988815;28;20543;-70
2022/06/08 10:28:12;;;;;;;24.93;2.13;;;32.80;1.00;;;;;;4988623;28;20921;-70
2022/06/08 10:30:46;;;;;;;27.10;2.97;;;32.30;1.00;;;;;;4987760;28;20539;-70
2022/06/08 10:33:18;;;;;;;25.37;2.30;;;31.90;1.00;;;;;;4969569;28;20732;-70
2022/06/08 10:35:50;;;;;;;24.20;2.80;;;31.40;1.00;;;;;;4968641;28;20835;-70
2022/06/08 10:38:20;;;;;;;26.43;2.70;;;31.20;1.00;;;;;;4969953;28;20472;-70
2022/06/08 10:40:50;;;;;;;25.03;2.70;;;31.00;1.00;;;;;;4968913;28;20485;-70
2022/06/08 10:43:25;;;;;;;25.57;1.93;;;30.60;1.00;;;;;;4986639;28;20576;-70
2022/06/08 10:46:00;;;;;;;25.47;2.60;;;30.20;1.00;;;;;;4988249;28;20464;-69
2022/06/08 10:48:47;;;;;;;26.33;2.90;;;29.80;1.00;;;;;;4988504;28;20547;-69
2022/06/08 10:51:45;;;;;;;26.07;2.80;;;29.50;1.00;;;;;;4988932;28;20453;-70
2022/06/08 10:57:42;;;;;;;27.10;2.77;;;29.20;1.00;;;;;;4992206;28;20459;-70
2022/06/08 11:00:41;;;;;;;26.13;2.60;;;29.00;1.00;;;;;;4992598;28;20562;-70
2022/06/08 11:03:33;;;;;;;25.33;3.17;;;28.80;1.00;;;;;;4990645;28;20814;-70
2022/06/08 11:06:00;;;;;;;25.70;3.13;;;28.50;1.00;;;;;;4992343;28;20480;-70
2022/06/08 11:08:51;;;;;;;25.30;2.50;;;28.40;1.00;;;;;;4992638;28;20456;-70
2022/06/08 11:11:40;;;;;;;26.47;2.70;;;28.30;1.00;;;;;;4992441;28;20460;-70
2022/06/08 11:14:26;;;;;;;26.00;2.97;;;28.10;1.00;;;;;;4990587;28;20546;-70
2022/06/08 11:16:54;;;;;;;24.27;2.80;;;27.90;1.00;;;;;;4992295;28;20441;-70
2022/06/08 11:19:25;;;;;;;25.67;2.53;;;27.80;1.10;;;;;;4991786;28;20972;-69
2022/06/08 11:21:54;;;;;;;24.33;2.80;;;27.80;1.00;;;;;;4992329;28;20468;-70
2022/06/08 11:24:27;;;;;;;25.20;2.40;;;27.60;1.90;;;;;;4990551;28;20538;-69
2022/06/08 11:27:26;;;;;;;26.63;3.40;;;27.50;2.20;;;;;;4991696;28;20576;-70
2022/06/08 11:29:54;;;;;;;25.30;2.90;;;27.50;3.20;;;;;;4992083;28;20471;-70
2022/06/08 11:32:28;;;;;;;24.10;2.20;;;27.50;3.10;;;;;;4991496;28;20484;-70
2022/06/08 11:35:24;;;;;;;26.50;2.97;;;27.50;3.20;;;;;;4990790;28;21078;-70
2022/06/08 11:37:59;;;;;;;26.40;2.77;;;27.50;3.20;;;;;;4950785;28;20483;-70
2022/06/08 11:40:30;;;;;;;26.00;2.60;;;27.60;2.50;;;;;;4991279;28;20475;-70
2022/06/08 11:43:08;;;;;;;27.27;3.13;;;27.50;1.60;;;;;;4991486;28;20485;-70
2022/06/08 11:45:40;;;;;;;25.63;2.40;;;27.30;2.00;;;;;;4988952;28;20464;-70
2022/06/08 11:48:13;;;;;;;25.70;2.60;;;27.10;1.70;;;;;;4991426;28;20992;-70
2022/06/08 11:50:44;;;;;;;26.50;2.73;;;27.10;2.00;;;;;;4991198;28;20798;-70
2022/06/08 11:53:17;;;;;;;25.97;2.80;;;26.90;1.20;;;;;;4991601;28;20483;-69
2022/06/08 11:55:54;;;;;;;26.67;2.80;;;26.80;1.50;;;;;;4990100;28;20460;-69
2022/06/08 11:58:24;;;;;;;26.17;2.40;;;26.80;3.20;;;;;;4991745;28;20626;-69
2022/06/08 12:00:53;;;;;;;24.83;2.43;;;26.90;3.90;;;;;;4990835;28;20469;-70
2022/06/08 12:03:26;;;;;;;24.20;2.80;;;27.00;3.80;;;;;;4990660;28;20509;-70
2022/06/08 12:06:03;;;;;;;25.20;3.20;;;27.10;3.80;;;;;;4990206;28;20460;-70
2022/06/08 12:08:34;;;;;;;24.43;2.30;;;27.20;4.50;;;;;;4991004;28;20448;-70
2022/06/08 12:11:04;;;;;;;26.83;2.50;;;27.30;3.50;;;;;;4990552;28;20796;-70
2022/06/08 12:13:32;;;;;;;27.10;2.70;;;27.20;2.20;;;;;;4991335;28;20480;-69
2022/06/08 12:16:04;;;;;;;27.60;3.20;;;27.20;2.50;;;;;;4990311;28;20461;-70
2022/06/08 12:18:48;;;;;;;25.17;2.17;;;27.10;1.50;;;;;;4990503;28;20492;-69
2022/06/08 12:22:10;;;;;;;26.57;2.67;;;26.80;1.40;;;;;;4990376;28;20472;-70
2022/06/08 12:24:37;;;;;;;25.50;2.20;;;26.60;1.50;;;;;;4990118;28;20460;-70
2022/06/08 12:27:18;;;;;;;24.63;2.43;;;26.50;2.40;;;;;;4990289;28;20509;-69
2022/06/08 12:29:52;;;;;;;24.97;2.80;;;26.40;4.20;;;;;;4990213;28;20471;-70
2022/06/08 12:32:23;;;;;;;24.00;2.27;;;26.40;4.40;;;;;;4989786;28;20473;-69
2022/06/08 12:34:51;;;;;;;25.50;2.30;;;26.50;4.70;;;;;;4990595;28;20449;-69
2022/06/08 12:37:45;;;;;;;26.60;2.20;;;26.60;3.10;;;;;;4990516;28;20860;-70
2022/06/08 12:40:29;;;;;;;25.77;2.30;;;26.70;4.10;;;;;;4990913;28;20441;-69
2022/06/08 12:43:14;;;;;;;25.47;2.40;;;26.80;4.00;;;;;;4990413;28;20494;-71
2022/06/08 12:45:43;;;;;;;25.90;2.40;;;27.00;2.10;;;;;;4987565;28;20492;-71
2022/06/08 12:48:23;;;;;;;29.43;2.93;;;26.70;1.90;;;;;;4990806;28;20960;-71
2022/06/08 12:50:50;;;;;;;27.03;2.70;;;26.60;2.50;;;;;;4990365;28;20449;-71
2022/06/08 12:53:18;;;;;;;25.10;2.30;;;26.50;2.10;;;;;;4990433;28;20480;-71
2022/06/08 12:55:44;;;;;;;26.53;2.30;;;26.30;3.00;;;;;;4989652;28;20465;-71
2022/06/08 12:58:13;;;;;;;23.80;1.97;;;26.40;3.30;;;;;;4990598;28;20544;-70
2022/06/08 13:00:47;;;;;;;25.50;2.27;;;26.40;4.30;;;;;;4989237;28;20501;-70
2022/06/08 13:03:18;;;;;;;24.53;2.20;;;26.70;4.50;;;;;;4990129;28;20531;-70
2022/06/08 13:05:45;;;;;;;25.97;2.30;;;26.80;4.30;;;;;;4989564;28;20930;-71
2022/06/08 13:08:16;;;;;;;26.17;2.27;;;26.90;3.20;;;;;;4990385;28;20464;-71
2022/06/08 13:10:44;;;;;;;25.80;2.17;;;26.90;3.50;;;;;;4990734;28;20616;-70
2022/06/08 13:13:19;;;;;;;27.23;2.37;;;26.80;2.60;;;;;;4988144;28;20488;-70
2022/06/08 13:15:47;;;;;;;25.73;2.27;;;26.80;3.00;;;;;;4988569;28;20444;-70
2022/06/08 13:18:17;;;;;;;24.97;1.97;;;26.90;4.20;;;;;;4990075;28;20509;-70
2022/06/08 13:20:44;;;;;;;24.37;1.93;;;26.90;4.20;;;;;;4989614;28;20854;-71